Terminal Aerodrome Forecast
Issued by NWS

Home | Current Version | Previous Version | Text Only | Print | Product List | Glossary On
Versions: 1 2 3 4 5 6 7 8 9 10 11 12 13 14 15
000
FTAK31 PAJN 010540
TAFAJN
TAF
PAJN 010540Z 0106/0206 07008KT P6SM -DZ FEW035 OVC060
     FM011200 08008KT P6SM -RA BKN035 OVC050
     FM011600 12012KT 6SM -RA BR BKN025 OVC035=

USA.gov is the U.S. government's official web portal to all federal, state and local government web resources and services.